sensor_id;sensor_type;location;lat;lon;timestamp;pressure;altitude;pressure_sealevel;temperature;humidity
48204;BME280;33994;50.998;5.864;2023-04-01T00:01:42;98842.75;;;9.25;100.00
48204;BME280;33994;50.998;5.864;2023-04-01T00:04:45;98836.66;;;9.24;100.00
48204;BME280;33994;50.998;5.864;2023-04-01T00:07:48;98839.34;;;9.23;100.00
48204;BME280;33994;50.998;5.864;2023-04-01T00:10:52;98840.19;;;9.23;100.00
48204;BME280;33994;50.998;5.864;2023-04-01T00:13:57;98834.03;;;9.26;100.00
48204;BME280;33994;50.998;5.864;2023-04-01T00:17:00;98836.66;;;9.24;100.00
48204;BME280;33994;50.998;5.864;2023-04-01T00:20:04;98834.97;;;9.23;100.00
48204;BME280;33994;50.998;5.864;2023-04-01T00:23:07;98849.06;;;9.19;100.00
48204;BME280;33994;50.998;5.864;2023-04-01T00:26:11;98843.88;;;9.18;100.00
48204;BME280;33994;50.998;5.864;2023-04-01T00:29:15;98848.22;;;9.19;100.00
48204;BME280;33994;50.998;5.864;2023-04-01T00:32:18;98834.19;;;9.21;100.00
48204;BME280;33994;50.998;5.864;2023-04-01T00:35:21;98841.41;;;9.15;100.00
48204;BME280;33994;50.998;5.864;2023-04-01T00:38:25;98843.13;;;9.16;100.00
48204;BME280;33994;50.998;5.864;2023-04-01T00:41:28;98850.94;;;9.16;100.00
48204;BME280;33994;50.998;5.864;2023-04-01T00:44:33;98846.63;;;9.15;100.00
48204;BME280;33994;50.998;5.864;2023-04-01T00:47:37;98851.00;;;9.14;100.00
48204;BME280;33994;50.998;5.864;2023-04-01T00:50:42;98844.09;;;9.13;100.00
48204;BME280;33994;50.998;5.864;2023-04-01T00:53:50;98846.63;;;9.15;100.00
48204;BME280;33994;50.998;5.864;2023-04-01T00:56:56;98851.13;;;9.11;100.00
48204;BME280;33994;50.998;5.864;2023-04-01T01:00:04;98838.88;;;9.13;100.00
48204;BME280;33994;50.998;5.864;2023-04-01T01:03:08;98851.84;;;9.15;100.00
48204;BME280;33994;50.998;5.864;2023-04-01T01:06:20;98843.25;;;9.13;100.00
48204;BME280;33994;50.998;5.864;2023-04-01T01:09:30;98841.66;;;9.09;100.00
48204;BME280;33994;50.998;5.864;2023-04-01T01:12:40;98843.34;;;9.10;100.00
48204;BME280;33994;50.998;5.864;2023-04-01T01:15:48;98842.44;;;9.11;100.00
48204;BME280;33994;50.998;5.864;2023-04-01T01:18:57;98839.91;;;9.09;100.00
48204;BME280;33994;50.998;5.864;2023-04-01T01:22:31;98843.25;;;9.13;100.00
48204;BME280;33994;50.998;5.864;2023-04-01T01:25:41;98849.22;;;9.15;100.00
48204;BME280;33994;50.998;5.864;2023-04-01T01:28:51;98840.63;;;9.13;100.00
48204;BME280;33994;50.998;5.864;2023-04-01T01:32:06;98847.66;;;9.11;100.00
48204;BME280;33994;50.998;5.864;2023-04-01T01:35:22;98842.44;;;9.11;100.00
48204;BME280;33994;50.998;5.864;2023-04-01T01:38:29;98833.03;;;9.07;100.00
48204;BME280;33994;50.998;5.864;2023-04-01T01:41:34;98832.28;;;9.05;100.00
48204;BME280;33994;50.998;5.864;2023-04-01T01:44:41;98837.41;;;9.06;100.00
48204;BME280;33994;50.998;5.864;2023-04-01T01:47:47;98837.28;;;9.09;100.00
48204;BME280;33994;50.998;5.864;2023-04-01T01:50:53;98834.75;;;9.08;100.00
48204;BME280;33994;50.998;5.864;2023-04-01T01:53:56;98842.59;;;9.08;100.00
48204;BME280;33994;50.998;5.864;2023-04-01T01:57:05;98837.41;;;9.06;100.00
48204;BME280;33994;50.998;5.864;2023-04-01T02:00:10;98840.09;;;9.05;100.00
48204;BME280;33994;50.998;5.864;2023-04-01T02:03:15;98839.25;;;9.04;100.00
48204;BME280;33994;50.998;5.864;2023-04-01T02:06:23;98848.75;;;9.05;100.00
48204;BME280;33994;50.998;5.864;2023-04-01T02:09:28;98847.00;;;9.06;100.00
48204;BME280;33994;50.998;5.864;2023-04-01T02:12:32;98850.53;;;9.05;100.00
48204;BME280;33994;50.998;5.864;2023-04-01T02:15:42;98857.44;;;9.06;100.00
48204;BME280;33994;50.998;5.864;2023-04-01T02:18:48;98855.75;;;9.05;100.00
48204;BME280;33994;50.998;5.864;2023-04-01T02:21:56;98852.28;;;9.04;100.00
48204;BME280;33994;50.998;5.864;2023-04-01T02:25:03;98853.31;;;9.00;100.00
48204;BME280;33994;50.998;5.864;2023-04-01T02:28:09;98863.78;;;8.98;100.00
48204;BME280;33994;50.998;5.864;2023-04-01T02:31:14;98862.03;;;8.99;100.00
48204;BME280;33994;50.998;5.864;2023-04-01T02:34:18;98869.81;;;9.00;100.00
48204;BME280;33994;50.998;5.864;2023-04-01T02:37:23;98872.47;;;8.99;100.00
48204;BME280;33994;50.998;5.864;2023-04-01T02:40:26;98862.84;;;9.01;100.00
48204;BME280;33994;50.998;5.864;2023-04-01T02:43:29;98873.19;;;9.02;100.00
48204;BME280;33994;50.998;5.864;2023-04-01T02:46:32;98874.03;;;9.03;100.00
48204;BME280;33994;50.998;5.864;2023-04-01T02:49:35;98876.72;;;9.01;100.00
48204;BME280;33994;50.998;5.864;2023-04-01T02:52:39;98868.91;;;9.01;100.00
48204;BME280;33994;50.998;5.864;2023-04-01T02:55:42;98878.41;;;9.02;100.00
48204;BME280;33994;50.998;5.864;2023-04-01T02:58:45;98876.59;;;9.05;100.00
48204;BME280;33994;50.998;5.864;2023-04-01T03:01:48;98881.84;;;9.03;100.00
48204;BME280;33994;50.998;5.864;2023-04-01T03:04:51;98878.28;;;9.06;100.00
48204;BME280;33994;50.998;5.864;2023-04-01T03:07:56;98897.28;;;9.09;100.00
48204;BME280;33994;50.998;5.864;2023-04-01T03:11:00;98890.50;;;9.05;100.00
48204;BME280;33994;50.998;5.864;2023-04-01T03:14:03;98891.41;;;9.04;100.00
48204;BME280;33994;50.998;5.864;2023-04-01T03:17:06;98889.63;;;9.05;100.00
48204;BME280;33994;50.998;5.864;2023-04-01T03:20:10;98893.03;;;9.07;100.00
48204;BME280;33994;50.998;5.864;2023-04-01T03:23:15;98889.56;;;9.06;100.00
48204;BME280;33994;50.998;5.864;2023-04-01T03:26:18;98898.31;;;9.05;100.00
48204;BME280;33994;50.998;5.864;2023-04-01T03:29:21;98904.25;;;9.09;100.00
48204;BME280;33994;50.998;5.864;2023-04-01T03:32:24;98896.44;;;9.09;100.00
48204;BME280;33994;50.998;5.864;2023-04-01T03:35:28;98903.53;;;9.05;100.00
48204;BME280;33994;50.998;5.864;2023-04-01T03:38:32;98908.81;;;9.04;100.00
48204;BME280;33994;50.998;5.864;2023-04-01T03:41:36;98906.06;;;9.07;100.00
48204;BME280;33994;50.998;5.864;2023-04-01T03:44:40;98912.19;;;9.06;100.00
48204;BME280;33994;50.998;5.864;2023-04-01T03:47:43;98917.41;;;9.06;100.00
48204;BME280;33994;50.998;5.864;2023-04-01T03:50:47;98905.28;;;9.05;100.00
48204;BME280;33994;50.998;5.864;2023-04-01T03:53:51;98909.69;;;9.02;100.00
48204;BME280;33994;50.998;5.864;2023-04-01T03:56:54;98922.69;;;9.04;100.00
48204;BME280;33994;50.998;5.864;2023-04-01T03:59:57;98920.97;;;9.03;100.00
48204;BME280;33994;50.998;5.864;2023-04-01T04:03:01;98927.06;;;9.04;100.00
48204;BME280;33994;50.998;5.864;2023-04-01T04:06:04;98925.34;;;9.02;100.00
48204;BME280;33994;50.998;5.864;2023-04-01T04:09:08;98932.38;;;9.00;100.00
48204;BME280;33994;50.998;5.864;2023-04-01T04:12:11;98931.47;;;9.01;100.00
48204;BME280;33994;50.998;5.864;2023-04-01T04:15:14;98942.81;;;9.00;100.00
48204;BME280;33994;50.998;5.864;2023-04-01T04:18:17;98938.56;;;8.98;100.00
48204;BME280;33994;50.998;5.864;2023-04-01T04:21:20;98944.72;;;8.95;100.00
48204;BME280;33994;50.998;5.864;2023-04-01T04:24:25;98940.44;;;8.94;100.00
48204;BME280;33994;50.998;5.864;2023-04-01T04:27:28;98949.94;;;8.95;100.00
48204;BME280;33994;50.998;5.864;2023-04-01T04:30:31;98945.66;;;8.94;100.00
48204;BME280;33994;50.998;5.864;2023-04-01T04:33:34;98946.56;;;8.93;100.00
48204;BME280;33994;50.998;5.864;2023-04-01T04:36:37;98953.47;;;8.94;100.00
48204;BME280;33994;50.998;5.864;2023-04-01T04:39:42;98956.25;;;8.90;100.00
48204;BME280;33994;50.998;5.864;2023-04-01T04:42:45;98948.44;;;8.90;100.00
48204;BME280;33994;50.998;5.864;2023-04-01T04:45:48;98956.25;;;8.90;100.00
48204;BME280;33994;50.998;5.864;2023-04-01T04:48:51;98954.56;;;8.89;100.00
48204;BME280;33994;50.998;5.864;2023-04-01T04:51:54;98958.94;;;8.88;100.00
48204;BME280;33994;50.998;5.864;2023-04-01T04:54:59;98962.44;;;8.87;100.00
48204;BME280;33994;50.998;5.864;2023-04-01T04:58:02;98964.16;;;8.88;100.00
48204;BME280;33994;50.998;5.864;2023-04-01T05:01:06;98968.56;;;8.86;100.00
48204;BME280;33994;50.998;5.864;2023-04-01T05:04:10;98968.50;;;8.88;100.00
48204;BME280;33994;50.998;5.864;2023-04-01T05:07:14;98981.59;;;8.86;100.00
48204;BME280;33994;50.998;5.864;2023-04-01T05:10:18;98979.94;;;8.84;100.00
48204;BME280;33994;50.998;5.864;2023-04-01T05:13:21;98980.84;;;8.83;100.00
48204;BME280;33994;50.998;5.864;2023-04-01T05:16:24;98982.63;;;8.82;100.00
48204;BME280;33994;50.998;5.864;2023-04-01T05:19:28;98979.28;;;8.79;100.00
48204;BME280;33994;50.998;5.864;2023-04-01T05:22:30;98990.53;;;8.79;100.00
48204;BME280;33994;50.998;5.864;2023-04-01T05:25:37;98999.28;;;8.78;100.00
48204;BME280;33994;50.998;5.864;2023-04-01T05:28:40;99004.31;;;8.83;100.00
48204;BME280;33994;50.998;5.864;2023-04-01T05:31:43;98997.34;;;8.83;100.00
48204;BME280;33994;50.998;5.864;2023-04-01T05:34:50;99001.63;;;8.84;100.00
48204;BME280;33994;50.998;5.864;2023-04-01T05:37:53;99000.75;;;8.85;100.00
48204;BME280;33994;50.998;5.864;2023-04-01T05:41:00;99004.22;;;8.86;100.00
48204;BME280;33994;50.998;5.864;2023-04-01T05:44:04;99013.63;;;8.90;100.00
48204;BME280;33994;50.998;5.864;2023-04-01T05:47:07;99012.66;;;8.92;100.00
48204;BME280;33994;50.998;5.864;2023-04-01T05:50:10;99014.34;;;8.93;100.00
48204;BME280;33994;50.998;5.864;2023-04-01T05:53:13;99019.56;;;8.93;100.00
48204;BME280;33994;50.998;5.864;2023-04-01T05:56:18;99020.34;;;8.95;100.00
48204;BME280;33994;50.998;5.864;2023-04-01T05:59:21;99026.47;;;8.94;100.00
48204;BME280;33994;50.998;5.864;2023-04-01T06:02:24;99026.47;;;8.94;100.00
48204;BME280;33994;50.998;5.864;2023-04-01T06:05:28;99024.69;;;8.96;100.00
48204;BME280;33994;50.998;5.864;2023-04-01T06:08:32;99032.53;;;8.95;100.00
48204;BME280;33994;50.998;5.864;2023-04-01T06:11:40;99036.91;;;8.94;100.00
48204;BME280;33994;50.998;5.864;2023-04-01T06:14:52;99047.34;;;8.94;100.00
48204;BME280;33994;50.998;5.864;2023-04-01T06:18:13;99040.44;;;8.93;100.00
48204;BME280;33994;50.998;5.864;2023-04-01T06:21:47;99053.34;;;8.96;100.00
48204;BME280;33994;50.998;5.864;2023-04-01T06:25:25;99052.50;;;8.96;100.00
48204;BME280;33994;50.998;5.864;2023-04-01T06:28:59;99054.31;;;8.94;100.00
48204;BME280;33994;50.998;5.864;2023-04-01T06:32:19;99068.25;;;8.93;100.00
48204;BME280;33994;50.998;5.864;2023-04-01T06:35:51;99066.59;;;8.90;100.00
48204;BME280;33994;50.998;5.864;2023-04-01T06:39:15;99067.53;;;8.89;100.00
48204;BME280;33994;50.998;5.864;2023-04-01T06:42:36;99063.22;;;8.88;100.00
48204;BME280;33994;50.998;5.864;2023-04-01T06:45:50;99069.22;;;8.90;100.00
48204;BME280;33994;50.998;5.864;2023-04-01T06:49:19;99075.34;;;8.89;100.00
48204;BME280;33994;50.998;5.864;2023-04-01T06:52:27;99074.44;;;8.90;100.00
48204;BME280;33994;50.998;5.864;2023-04-01T06:55:38;99081.28;;;8.93;100.00
48204;BME280;33994;50.998;5.864;2023-04-01T06:58:46;99092.59;;;8.92;100.00
48204;BME280;33994;50.998;5.864;2023-04-01T07:01:56;99091.75;;;8.91;100.00
48204;BME280;33994;50.998;5.864;2023-04-01T07:05:00;99100.50;;;8.90;100.00
48204;BME280;33994;50.998;5.864;2023-04-01T07:08:08;99099.59;;;8.91;100.00
48204;BME280;33994;50.998;5.864;2023-04-01T07:11:20;99105.59;;;8.93;100.00
48204;BME280;33994;50.998;5.864;2023-04-01T07:14:30;99104.75;;;8.93;100.00
48204;BME280;33994;50.998;5.864;2023-04-01T07:17:36;99109.16;;;8.91;100.00
48204;BME280;33994;50.998;5.864;2023-04-01T07:20:42;99110.00;;;8.91;100.00
48204;BME280;33994;50.998;5.864;2023-04-01T07:23:46;99116.06;;;8.92;100.00
48204;BME280;33994;50.998;5.864;2023-04-01T07:26:52;99118.84;;;8.87;100.00
48204;BME280;33994;50.998;5.864;2023-04-01T07:29:57;99120.56;;;8.88;100.00
48204;BME280;33994;50.998;5.864;2023-04-01T07:33:04;99123.97;;;8.90;100.00
48204;BME280;33994;50.998;5.864;2023-04-01T07:36:13;99141.38;;;8.90;100.00
48204;BME280;33994;50.998;5.864;2023-04-01T07:39:27;99134.38;;;8.90;100.00
48204;BME280;33994;50.998;5.864;2023-04-01T07:42:43;99150.03;;;8.90;100.00
48204;BME280;33994;50.998;5.864;2023-04-01T07:45:57;99148.25;;;8.92;100.00
48204;BME280;33994;50.998;5.864;2023-04-01T07:49:08;99156.00;;;8.94;100.00
48204;BME280;33994;50.998;5.864;2023-04-01T07:52:19;99156.84;;;8.94;100.00
48204;BME280;33994;50.998;5.864;2023-04-01T07:55:26;99169.84;;;8.96;100.00
48204;BME280;33994;50.998;5.864;2023-04-01T07:58:37;99173.22;;;8.98;100.00
48204;BME280;33994;50.998;5.864;2023-04-01T08:01:49;99174.03;;;9.00;100.00
48204;BME280;33994;50.998;5.864;2023-04-01T08:05:04;99182.72;;;9.00;100.00
48204;BME280;33994;50.998;5.864;2023-04-01T08:08:18;99189.63;;;9.01;100.00
48204;BME280;33994;50.998;5.864;2023-04-01T08:11:32;99196.63;;;8.99;100.00
48204;BME280;33994;50.998;5.864;2023-04-01T08:14:50;99194.84;;;9.01;100.00
48204;BME280;33994;50.998;5.864;2023-04-01T08:18:04;99199.16;;;9.02;100.00
48204;BME280;33994;50.998;5.864;2023-04-01T08:21:14;99206.97;;;9.02;100.00
48204;BME280;33994;50.998;5.864;2023-04-01T08:24:25;99217.19;;;9.09;100.00
48204;BME280;33994;50.998;5.864;2023-04-01T08:27:33;99219.72;;;9.12;100.00
48204;BME280;33994;50.998;5.864;2023-04-01T08:30:42;99221.31;;;9.16;100.00
48204;BME280;33994;50.998;5.864;2023-04-01T08:33:46;99226.28;;;9.22;100.00
48204;BME280;33994;50.998;5.864;2023-04-01T08:36:53;99231.47;;;9.23;100.00
48204;BME280;33994;50.998;5.864;2023-04-01T08:42:31;99233.84;;;9.31;100.00
48204;BME280;33994;50.998;5.864;2023-04-01T08:45:56;99234.69;;;9.32;100.00
48204;BME280;33994;50.998;5.864;2023-04-01T08:49:17;99240.00;;;9.29;100.00
48204;BME280;33994;50.998;5.864;2023-04-01T08:52:35;99246.16;;;9.28;100.00
48204;BME280;33994;50.998;5.864;2023-04-01T08:56:01;99258.34;;;9.27;100.00
48204;BME280;33994;50.998;5.864;2023-04-01T08:59:27;99250.44;;;9.29;100.00
48204;BME280;33994;50.998;5.864;2023-04-01T09:02:55;99263.56;;;9.27;100.00
48204;BME280;33994;50.998;5.864;2023-04-01T09:06:33;99268.72;;;9.29;100.00
48204;BME280;33994;50.998;5.864;2023-04-01T09:10:18;99271.22;;;9.32;100.00
48204;BME280;33994;50.998;5.864;2023-04-01T09:13:48;99274.59;;;9.35;100.00
48204;BME280;33994;50.998;5.864;2023-04-01T09:17:15;99288.38;;;9.39;100.00
48204;BME280;33994;50.998;5.864;2023-04-01T09:20:44;99276.97;;;9.41;100.00
48204;BME280;33994;50.998;5.864;2023-04-01T09:27:33;99285.69;;;9.40;100.00
48204;BME280;33994;50.998;5.864;2023-04-01T09:30:42;99290.91;;;9.40;100.00
48204;BME280;33994;50.998;5.864;2023-04-01T09:34:15;99295.13;;;9.44;100.00
48204;BME280;33994;50.998;5.864;2023-04-01T09:37:34;99302.16;;;9.42;100.00
48204;BME280;33994;50.998;5.864;2023-04-01T09:40:46;99301.25;;;9.43;100.00
48204;BME280;33994;50.998;5.864;2023-04-01T09:44:00;99304.78;;;9.42;100.00
48204;BME280;33994;50.998;5.864;2023-04-01T09:47:16;99307.41;;;9.42;100.00
48204;BME280;33994;50.998;5.864;2023-04-01T09:50:31;99309.03;;;9.45;100.00
48204;BME280;33994;50.998;5.864;2023-04-01T09:53:48;99322.97;;;9.44;100.00
48204;BME280;33994;50.998;5.864;2023-04-01T09:57:26;99311.59;;;9.46;100.00
48204;BME280;33994;50.998;5.864;2023-04-01T10:00:50;99314.88;;;9.52;100.00
48204;BME280;33994;50.998;5.864;2023-04-01T10:04:23;99320.09;;;9.52;100.00
48204;BME280;33994;50.998;5.864;2023-04-01T10:11:25;99334.72;;;9.57;100.00
48204;BME280;33994;50.998;5.864;2023-04-01T10:15:06;99335.56;;;9.58;100.00
48204;BME280;33994;50.998;5.864;2023-04-01T10:18:36;99346.78;;;9.60;100.00
48204;BME280;33994;50.998;5.864;2023-04-01T10:22:20;99337.16;;;9.62;100.00
48204;BME280;33994;50.998;5.864;2023-04-01T10:25:36;99347.59;;;9.62;100.00
48204;BME280;33994;50.998;5.864;2023-04-01T10:29:02;99351.00;;;9.64;100.00
48204;BME280;33994;50.998;5.864;2023-04-01T10:32:38;99349.31;;;9.63;100.00
48204;BME280;33994;50.998;5.864;2023-04-01T10:40:02;99357.03;;;9.66;100.00
48204;BME280;33994;50.998;5.864;2023-04-01T10:46:55;99363.03;;;9.68;100.00
48204;BME280;33994;50.998;5.864;2023-04-01T10:50:19;99357.72;;;9.71;100.00
48204;BME280;33994;50.998;5.864;2023-04-01T10:53:49;99364.53;;;9.75;100.00
48204;BME280;33994;50.998;5.864;2023-04-01T10:56:59;99361.72;;;9.81;100.00
48204;BME280;33994;50.998;5.864;2023-04-01T11:00:16;99365.94;;;9.85;100.00
48204;BME280;33994;50.998;5.864;2023-04-01T11:07:16;99372.31;;;10.02;100.00
48204;BME280;33994;50.998;5.864;2023-04-01T11:22:00;99381.75;;;10.29;100.00
48204;BME280;33994;50.998;5.864;2023-04-01T11:25:20;99385.19;;;10.31;100.00
48204;BME280;33994;50.998;5.864;2023-04-01T11:31:58;99398.91;;;10.36;100.00
48204;BME280;33994;50.998;5.864;2023-04-01T11:35:24;99395.28;;;10.40;100.00
48204;BME280;33994;50.998;5.864;2023-04-01T11:38:44;99393.47;;;10.42;100.00
48204;BME280;33994;50.998;5.864;2023-04-01T11:41:56;99392.00;;;10.35;100.00
48204;BME280;33994;50.998;5.864;2023-04-01T11:45:15;99402.56;;;10.32;100.00
48204;BME280;33994;50.998;5.864;2023-04-01T11:52:04;99407.88;;;10.29;99.85
48204;BME280;33994;50.998;5.864;2023-04-01T11:55:32;99408.75;;;10.30;99.88
48204;BME280;33994;50.998;5.864;2023-04-01T11:58:56;99418.13;;;10.35;99.59
48204;BME280;33994;50.998;5.864;2023-04-01T12:02:04;99422.44;;;10.36;99.36
48204;BME280;33994;50.998;5.864;2023-04-01T12:05:25;99430.53;;;10.30;98.79
48204;BME280;33994;50.998;5.864;2023-04-01T12:08:41;99435.75;;;10.30;98.67
48204;BME280;33994;50.998;5.864;2023-04-01T12:12:00;99443.69;;;10.27;98.81
48204;BME280;33994;50.998;5.864;2023-04-01T12:15:21;99447.91;;;10.31;99.53
48204;BME280;33994;50.998;5.864;2023-04-01T12:18:33;99442.66;;;10.31;99.92
48204;BME280;33994;50.998;5.864;2023-04-01T12:21:43;99448.72;;;10.33;100.00
48204;BME280;33994;50.998;5.864;2023-04-01T12:24:49;99457.25;;;10.37;100.00
48204;BME280;33994;50.998;5.864;2023-04-01T12:28:06;99453.97;;;10.32;100.00
48204;BME280;33994;50.998;5.864;2023-04-01T12:31:26;99467.22;;;10.27;100.00
48204;BME280;33994;50.998;5.864;2023-04-01T12:34:48;99467.00;;;10.33;100.00
48204;BME280;33994;50.998;5.864;2023-04-01T12:38:08;99468.88;;;10.30;100.00
48204;BME280;33994;50.998;5.864;2023-04-01T12:41:22;99470.50;;;10.32;100.00
48204;BME280;33994;50.998;5.864;2023-04-01T12:44:41;99475.63;;;10.35;100.00
48204;BME280;33994;50.998;5.864;2023-04-01T12:48:01;99482.69;;;10.33;100.00
48204;BME280;33994;50.998;5.864;2023-04-01T12:51:29;99480.97;;;10.32;100.00
48204;BME280;33994;50.998;5.864;2023-04-01T12:55:01;99481.88;;;10.31;100.00
48204;BME280;33994;50.998;5.864;2023-04-01T12:58:42;99484.41;;;10.33;100.00
48204;BME280;33994;50.998;5.864;2023-04-01T13:02:08;99481.69;;;10.36;100.00
48204;BME280;33994;50.998;5.864;2023-04-01T13:05:31;99491.25;;;10.37;100.00
48204;BME280;33994;50.998;5.864;2023-04-01T13:08:43;99491.25;;;10.37;100.00
48204;BME280;33994;50.998;5.864;2023-04-01T13:12:00;99494.72;;;10.37;100.00
48204;BME280;33994;50.998;5.864;2023-04-01T13:15:27;99502.69;;;10.34;100.00
48204;BME280;33994;50.998;5.864;2023-04-01T13:18:39;99502.78;;;10.31;100.00
48204;BME280;33994;50.998;5.864;2023-04-01T13:21:54;99511.69;;;10.26;100.00
48204;BME280;33994;50.998;5.864;2023-04-01T13:25:03;99514.34;;;10.24;100.00
48204;BME280;33994;50.998;5.864;2023-04-01T13:28:13;99517.03;;;10.22;100.00
48204;BME280;33994;50.998;5.864;2023-04-01T13:31:26;99517.78;;;10.26;100.00
48204;BME280;33994;50.998;5.864;2023-04-01T13:34:47;99520.22;;;10.31;100.00
48204;BME280;33994;50.998;5.864;2023-04-01T13:38:08;99531.41;;;10.34;100.00
48204;BME280;33994;50.998;5.864;2023-04-01T13:41:22;99533.06;;;10.37;100.00
48204;BME280;33994;50.998;5.864;2023-04-01T13:44:32;99539.94;;;10.39;100.00
48204;BME280;33994;50.998;5.864;2023-04-01T13:51:29;99544.25;;;10.40;100.00
48204;BME280;33994;50.998;5.864;2023-04-01T13:54:59;99531.19;;;10.40;100.00
48204;BME280;33994;50.998;5.864;2023-04-01T13:58:20;99550.19;;;10.45;99.80
48204;BME280;33994;50.998;5.864;2023-04-01T14:01:32;99552.72;;;10.49;99.70
48204;BME280;33994;50.998;5.864;2023-04-01T14:04:53;99554.44;;;10.48;99.20
48204;BME280;33994;50.998;5.864;2023-04-01T14:08:09;99557.88;;;10.50;99.09
48204;BME280;33994;50.998;5.864;2023-04-01T14:11:20;99560.31;;;10.55;98.93
48204;BME280;33994;50.998;5.864;2023-04-01T14:14:39;99561.25;;;10.54;98.78
48204;BME280;33994;50.998;5.864;2023-04-01T14:17:55;99565.78;;;10.49;98.98
48204;BME280;33994;50.998;5.864;2023-04-01T14:21:09;99565.97;;;10.42;99.00
48204;BME280;33994;50.998;5.864;2023-04-01T14:24:30;99570.56;;;10.36;99.08
48204;BME280;33994;50.998;5.864;2023-04-01T14:27:41;99577.56;;;10.35;99.54
48204;BME280;33994;50.998;5.864;2023-04-01T14:31:15;99574.94;;;10.35;99.37
48204;BME280;33994;50.998;5.864;2023-04-01T14:34:34;99583.47;;;10.40;99.40
48204;BME280;33994;50.998;5.864;2023-04-01T14:38:02;99579.97;;;10.41;98.69
48204;BME280;33994;50.998;5.864;2023-04-01T14:41:20;99588.59;;;10.43;98.98
48204;BME280;33994;50.998;5.864;2023-04-01T14:44:45;99589.41;;;10.45;98.91
48204;BME280;33994;50.998;5.864;2023-04-01T14:47:58;99591.03;;;10.48;98.42
48204;BME280;33994;50.998;5.864;2023-04-01T14:51:09;99592.81;;;10.47;98.86
48204;BME280;33994;50.998;5.864;2023-04-01T14:54:18;99602.66;;;10.41;99.06
48204;BME280;33994;50.998;5.864;2023-04-01T14:57:26;99599.28;;;10.37;99.33
48204;BME280;33994;50.998;5.864;2023-04-01T15:00:41;99601.16;;;10.32;99.43
48204;BME280;33994;50.998;5.864;2023-04-01T15:03:56;99598.78;;;10.26;99.54
48204;BME280;33994;50.998;5.864;2023-04-01T15:07:25;99604.25;;;10.18;99.33
48204;BME280;33994;50.998;5.864;2023-04-01T15:10:46;99606.13;;;10.15;99.73
48204;BME280;33994;50.998;5.864;2023-04-01T15:14:14;99614.03;;;10.12;99.50
48204;BME280;33994;50.998;5.864;2023-04-01T15:17:36;99616.75;;;10.09;99.49
48204;BME280;33994;50.998;5.864;2023-04-01T15:21:00;99617.69;;;10.06;99.87
48204;BME280;33994;50.998;5.864;2023-04-01T15:24:10;99625.59;;;10.05;99.95
48204;BME280;33994;50.998;5.864;2023-04-01T15:27:26;99631.81;;;10.01;100.00
48204;BME280;33994;50.998;5.864;2023-04-01T15:30:37;99627.44;;;10.01;100.00
48204;BME280;33994;50.998;5.864;2023-04-01T15:34:07;99638.81;;;9.98;100.00
48204;BME280;33994;50.998;5.864;2023-04-01T15:37:18;99645.88;;;9.96;100.00
48204;BME280;33994;50.998;5.864;2023-04-01T15:40:27;99645.97;;;9.93;100.00
48204;BME280;33994;50.998;5.864;2023-04-01T15:43:40;99647.88;;;9.88;100.00
48204;BME280;33994;50.998;5.864;2023-04-01T15:46:46;99644.53;;;9.83;100.00
48204;BME280;33994;50.998;5.864;2023-04-01T15:49:53;99649.81;;;9.82;100.00
48204;BME280;33994;50.998;5.864;2023-04-01T15:53:09;99650.63;;;9.84;100.00
48204;BME280;33994;50.998;5.864;2023-04-01T15:56:22;99659.31;;;9.84;100.00
48204;BME280;33994;50.998;5.864;2023-04-01T15:59:43;99656.72;;;9.84;100.00
48204;BME280;33994;50.998;5.864;2023-04-01T16:02:57;99660.31;;;9.80;100.00
48204;BME280;33994;50.998;5.864;2023-04-01T16:06:17;99670.84;;;9.77;100.00
48204;BME280;33994;50.998;5.864;2023-04-01T16:09:39;99669.16;;;9.76;100.00
48204;BME280;33994;50.998;5.864;2023-04-01T16:12:53;99671.78;;;9.74;100.00
48204;BME280;33994;50.998;5.864;2023-04-01T16:16:08;99676.28;;;9.69;100.00
48204;BME280;33994;50.998;5.864;2023-04-01T16:19:33;99677.94;;;9.72;100.00
48204;BME280;33994;50.998;5.864;2023-04-01T16:22:38;99684.81;;;9.76;100.00
48204;BME280;33994;50.998;5.864;2023-04-01T16:25:44;99692.50;;;9.81;100.00
48204;BME280;33994;50.998;5.864;2023-04-01T16:28:54;99691.69;;;9.79;100.00
48204;BME280;33994;50.998;5.864;2023-04-01T16:32:14;99692.66;;;9.76;100.00
48204;BME280;33994;50.998;5.864;2023-04-01T16:35:30;99700.56;;;9.73;100.00
48204;BME280;33994;50.998;5.864;2023-04-01T16:38:40;99705.78;;;9.73;100.00
48204;BME280;33994;50.998;5.864;2023-04-01T16:41:49;99704.03;;;9.72;100.00
48204;BME280;33994;50.998;5.864;2023-04-01T16:44:59;99705.88;;;9.70;100.00
48204;BME280;33994;50.998;5.864;2023-04-01T16:48:10;99710.22;;;9.69;100.00
48204;BME280;33994;50.998;5.864;2023-04-01T16:51:16;99717.28;;;9.66;100.00
48204;BME280;33994;50.998;5.864;2023-04-01T16:54:28;99723.31;;;9.68;100.00
48204;BME280;33994;50.998;5.864;2023-04-01T16:57:37;99721.63;;;9.67;100.00
48204;BME280;33994;50.998;5.864;2023-04-01T17:00:48;99725.22;;;9.63;100.00
48204;BME280;33994;50.998;5.864;2023-04-01T17:03:57;99734.03;;;9.59;100.00
48204;BME280;33994;50.998;5.864;2023-04-01T17:07:15;99735.81;;;9.57;100.00
48204;BME280;33994;50.998;5.864;2023-04-01T17:10:42;99738.47;;;9.55;100.00
48204;BME280;33994;50.998;5.864;2023-04-01T17:14:00;99756.69;;;9.57;100.00
48204;BME280;33994;50.998;5.864;2023-04-01T17:17:18;99751.59;;;9.54;100.00
48204;BME280;33994;50.998;5.864;2023-04-01T17:20:32;99761.34;;;9.47;100.00
48204;BME280;33994;50.998;5.864;2023-04-01T17:23:43;99764.00;;;9.45;100.00
48204;BME280;33994;50.998;5.864;2023-04-01T17:26:55;99765.69;;;9.46;100.00
48204;BME280;33994;50.998;5.864;2023-04-01T17:30:24;99775.38;;;9.41;100.00
48204;BME280;33994;50.998;5.864;2023-04-01T17:37:00;99784.13;;;9.40;100.00
48204;BME280;33994;50.998;5.864;2023-04-01T17:43:42;99786.91;;;9.34;100.00
48204;BME280;33994;50.998;5.864;2023-04-01T17:47:10;99789.66;;;9.28;100.00
48204;BME280;33994;50.998;5.864;2023-04-01T17:50:22;99792.28;;;9.28;100.00